createdAt,value
2022-12-15T00:02:25.802Z,74.96
2022-12-15T00:05:12.035Z,75.05
2022-12-15T00:07:58.112Z,73.65
2022-12-15T00:10:44.505Z,74.13
2022-12-15T00:13:31.831Z,75.59
2022-12-15T00:16:18.547Z,76.40
2022-12-15T00:19:04.728Z,73.40
2022-12-15T00:21:50.760Z,75.27
2022-12-15T00:24:36.725Z,73.47
2022-12-15T00:27:22.699Z,71.61
2022-12-15T00:30:08.661Z,72.20
2022-12-15T00:32:55.082Z,72.18
2022-12-15T00:35:41.132Z,72.17
2022-12-15T00:38:28.763Z,73.17
2022-12-15T00:40:59.531Z,74.04
2022-12-15T00:43:32.657Z,72.42
2022-12-15T00:46:19.213Z,72.23
2022-12-15T00:48:47.494Z,72.87
2022-12-15T00:51:15.512Z,71.61
2022-12-15T00:54:01.522Z,71.95
2022-12-15T00:56:47.861Z,72.09
2022-12-15T00:59:34.319Z,71.80
2022-12-15T01:02:21.299Z,72.08
2022-12-15T01:05:07.298Z,72.02
2022-12-15T01:07:53.446Z,71.97
2022-12-15T01:10:39.478Z,72.29
2022-12-15T01:13:25.625Z,73.68
2022-12-15T01:16:11.619Z,71.70
2022-12-15T01:18:57.923Z,73.25
2022-12-15T01:21:26.500Z,73.37
2022-12-15T01:23:54.177Z,74.13
2022-12-15T01:26:21.525Z,73.12
2022-12-15T01:28:48.897Z,70.87
2022-12-15T01:31:16.567Z,69.60
2022-12-15T01:33:44.008Z,70.46
2022-12-15T01:36:12.061Z,71.43
2022-12-15T01:38:39.700Z,71.97
2022-12-15T01:41:10.541Z,70.15
2022-12-15T01:43:39.826Z,70.22
2022-12-15T01:46:16.562Z,70.26
2022-12-15T01:49:17.526Z,70.71
2022-12-15T01:51:49.041Z,70.92
2022-12-15T01:54:22.127Z,71.22
2022-12-15T01:56:52.613Z,72.11
2022-12-15T01:59:33.178Z,71.08
2022-12-15T02:02:01.231Z,70.35
2022-12-15T02:04:29.204Z,70.42
2022-12-15T02:06:56.557Z,70.44
2022-12-15T02:09:24.727Z,70.45
2022-12-15T02:11:59.793Z,70.87
2022-12-15T02:14:53.905Z,73.11
2022-12-15T02:17:50.045Z,71.45
2022-12-15T02:20:37.500Z,72.86
2022-12-15T02:23:29.678Z,71.91
2022-12-15T02:26:05.921Z,71.11
2022-12-15T02:29:01.094Z,71.17
2022-12-15T02:31:50.772Z,70.78
2022-12-15T02:34:18.527Z,70.34
2022-12-15T02:36:49.936Z,70.15
2022-12-15T02:39:18.431Z,70.71
2022-12-15T02:41:47.755Z,73.98
2022-12-15T02:44:19.673Z,71.42
2022-12-15T02:47:13.868Z,71.08
2022-12-15T02:49:59.523Z,69.84
2022-12-15T02:53:04.675Z,69.10
2022-12-15T02:55:50.656Z,68.69
2022-12-15T02:58:28.561Z,69.65
2022-12-15T03:01:09.139Z,68.50
2022-12-15T03:03:38.739Z,68.92
2022-12-15T03:06:06.582Z,68.72
2022-12-15T03:08:33.933Z,68.47
2022-12-15T03:11:01.666Z,68.80
2022-12-15T03:13:29.396Z,68.25
2022-12-15T03:15:58.528Z,68.25
2022-12-15T03:18:26.176Z,69.25
2022-12-15T03:20:53.720Z,68.55
2022-12-15T03:23:23.019Z,67.96
2022-12-15T03:25:50.643Z,67.72
2022-12-15T03:28:18.085Z,67.68
2022-12-15T03:30:45.489Z,65.75
2022-12-15T03:33:18.447Z,65.07
2022-12-15T03:35:45.821Z,64.78
2022-12-15T03:38:13.321Z,64.86
2022-12-15T03:40:40.978Z,67.06
2022-12-15T03:43:08.296Z,68.32
2022-12-15T03:45:35.909Z,68.75
2022-12-15T03:48:03.683Z,69.78
2022-12-15T03:50:31.067Z,69.40
2022-12-15T03:53:03.174Z,67.75
2022-12-15T03:55:31.234Z,68.74
2022-12-15T03:57:59.266Z,68.67
2022-12-15T04:00:27.238Z,67.50
2022-12-15T04:02:55.021Z,68.02
2022-12-15T04:05:31.640Z,68.19
2022-12-15T04:08:00.382Z,69.25
2022-12-15T04:10:34.051Z,67.96
2022-12-15T04:13:08.302Z,68.58
2022-12-15T04:15:37.340Z,67.09
2022-12-15T04:18:06.916Z,67.69
2022-12-15T04:20:34.276Z,66.86
2022-12-15T04:23:01.714Z,67.13
2022-12-15T04:25:48.001Z,68.97
2022-12-15T04:28:33.688Z,69.19
2022-12-15T04:31:28.382Z,70.44
2022-12-15T04:34:24.485Z,70.24
2022-12-15T04:37:12.372Z,70.03
2022-12-15T04:39:59.979Z,70.31
2022-12-15T04:42:47.709Z,70.06
2022-12-15T04:45:33.827Z,68.38
2022-12-15T04:48:20.033Z,66.56
2022-12-15T04:51:05.896Z,67.96
2022-12-15T04:53:51.961Z,69.80
2022-12-15T04:56:37.856Z,70.42
2022-12-15T04:59:24.185Z,69.96
2022-12-15T05:02:10.769Z,69.92
2022-12-15T05:04:57.012Z,68.44
2022-12-15T05:07:43.983Z,67.70
2022-12-15T05:10:30.356Z,69.42
2022-12-15T05:13:24.420Z,69.52
2022-12-15T05:16:10.754Z,70.39
2022-12-15T05:18:56.447Z,70.46
2022-12-15T05:21:42.593Z,73.43
2022-12-15T05:24:28.697Z,72.57
2022-12-15T05:27:14.716Z,72.04
2022-12-15T05:30:00.601Z,70.45
2022-12-15T05:32:28.229Z,72.14
2022-12-15T05:34:55.683Z,71.08
2022-12-15T05:37:23.013Z,69.73
2022-12-15T05:39:50.636Z,69.40
2022-12-15T05:42:18.027Z,70.22
2022-12-15T05:44:45.418Z,71.09
2022-12-15T05:47:13.111Z,71.20
2022-12-15T05:49:40.577Z,72.00
2022-12-15T05:52:08.234Z,72.85
2022-12-15T05:54:35.886Z,72.73
2022-12-15T05:57:03.260Z,73.00
2022-12-15T05:59:30.645Z,74.14
2022-12-15T06:01:58.286Z,73.26
2022-12-15T06:04:26.004Z,72.50
2022-12-15T06:06:53.414Z,72.95
2022-12-15T06:09:20.833Z,72.94
2022-12-15T06:11:48.481Z,71.16
2022-12-15T06:14:15.872Z,73.36
2022-12-15T06:16:50.350Z,72.73
2022-12-15T06:19:20.137Z,71.90
2022-12-15T06:21:47.822Z,71.60
2022-12-15T06:24:15.319Z,70.61
2022-12-15T06:26:43.003Z,69.87
2022-12-15T06:29:12.003Z,73.75
2022-12-15T06:31:40.283Z,74.97
2022-12-15T06:34:10.575Z,72.59
2022-12-15T06:36:39.053Z,72.62
2022-12-15T06:39:09.020Z,72.46
2022-12-15T06:41:36.965Z,74.05
2022-12-15T06:44:07.725Z,74.87
2022-12-15T06:46:35.328Z,74.28
2022-12-15T06:49:03.326Z,71.26
2022-12-15T06:51:30.816Z,72.78
2022-12-15T06:53:59.091Z,74.10
2022-12-15T06:56:34.151Z,73.95
2022-12-15T06:59:06.793Z,74.43
2022-12-15T07:01:34.879Z,73.65
2022-12-15T07:04:04.806Z,73.80
2022-12-15T07:06:36.589Z,72.33
2022-12-15T07:09:07.893Z,71.67
2022-12-15T07:11:35.865Z,72.04
2022-12-15T07:14:03.777Z,74.76
2022-12-15T07:16:31.484Z,73.82
2022-12-15T07:18:58.999Z,74.62
2022-12-15T07:21:26.459Z,73.63
2022-12-15T07:23:56.380Z,72.32
2022-12-15T07:26:25.197Z,71.90
2022-12-15T07:28:53.822Z,70.98
2022-12-15T07:31:22.549Z,73.21
2022-12-15T07:33:52.243Z,76.98
2022-12-15T07:36:20.464Z,74.68
2022-12-15T07:38:50.323Z,72.05
2022-12-15T07:41:19.808Z,73.25
2022-12-15T07:43:47.896Z,72.20
2022-12-15T07:46:16.596Z,71.61
2022-12-15T07:48:44.019Z,72.99
2022-12-15T07:51:20.250Z,71.93
2022-12-15T07:53:49.968Z,73.63
2022-12-15T07:56:19.231Z,75.97
2022-12-15T07:58:46.603Z,73.46
2022-12-15T08:01:14.499Z,75.04
2022-12-15T08:03:42.393Z,75.95
2022-12-15T08:06:12.367Z,75.38
2022-12-15T08:08:40.202Z,73.98
2022-12-15T08:11:09.864Z,74.80
2022-12-15T08:16:25.990Z,71.37
2022-12-15T08:18:53.872Z,73.03
2022-12-15T08:21:21.280Z,71.63
2022-12-15T08:23:49.515Z,73.48
2022-12-15T08:26:18.342Z,72.55
2022-12-15T08:28:46.152Z,71.25
2022-12-15T08:31:17.214Z,71.04
2022-12-15T08:33:45.958Z,72.28
2022-12-15T08:36:16.295Z,70.86
2022-12-15T08:38:45.538Z,70.31
2022-12-15T08:41:15.072Z,74.80
2022-12-15T08:43:48.228Z,76.27
2022-12-15T08:46:27.941Z,74.45
2022-12-15T08:48:56.119Z,73.40
2022-12-15T08:51:24.732Z,70.29
2022-12-15T08:53:52.563Z,70.52
2022-12-15T08:56:24.118Z,71.32
2022-12-15T08:58:58.323Z,72.48
2022-12-15T09:01:27.722Z,71.62
2022-12-15T09:03:56.605Z,69.96
2022-12-15T09:06:27.337Z,72.94
2022-12-15T09:08:59.792Z,72.36
2022-12-15T09:11:29.081Z,74.32
2022-12-15T09:13:59.864Z,71.34
2022-12-15T09:16:27.951Z,74.18
2022-12-15T09:18:57.521Z,73.25
2022-12-15T09:21:26.862Z,70.55
2022-12-15T09:23:57.772Z,70.46
2022-12-15T09:26:25.401Z,71.26
2022-12-15T09:28:54.907Z,72.55
2022-12-15T09:31:25.055Z,73.45
2022-12-15T09:33:55.232Z,73.66
2022-12-15T09:36:22.945Z,72.51
2022-12-15T09:38:50.345Z,76.11
2022-12-15T09:41:24.181Z,75.01
2022-12-15T09:43:56.639Z,74.89
2022-12-15T09:47:01.529Z,73.00
2022-12-15T09:49:47.545Z,72.48
2022-12-15T09:52:18.878Z,72.85
2022-12-15T09:54:46.632Z,72.30
2022-12-15T09:57:26.959Z,73.16
2022-12-15T10:00:21.647Z,72.44
2022-12-15T10:03:08.339Z,70.79
2022-12-15T10:06:22.294Z,70.84
2022-12-15T10:09:08.433Z,71.96
2022-12-15T10:11:38.719Z,73.36
2022-12-15T10:14:16.260Z,72.22
2022-12-15T10:16:46.547Z,71.25
2022-12-15T10:19:41.689Z,69.08
2022-12-15T10:22:30.148Z,70.29
2022-12-15T10:25:09.555Z,70.76
2022-12-15T10:28:14.692Z,68.87
2022-12-15T10:31:11.522Z,70.91
2022-12-15T10:33:47.069Z,67.99
2022-12-15T10:36:16.601Z,70.28
2022-12-15T10:38:47.503Z,72.22
2022-12-15T10:41:22.802Z,71.96
2022-12-15T10:43:51.407Z,69.50
2022-12-15T10:46:19.017Z,70.67
2022-12-15T10:48:57.130Z,71.29
2022-12-15T10:51:31.530Z,70.81
2022-12-15T10:54:01.931Z,70.85
2022-12-15T10:56:33.636Z,70.52
2022-12-15T10:59:06.374Z,70.27
2022-12-15T11:01:34.933Z,70.65
2022-12-15T11:04:02.579Z,71.60
2022-12-15T11:06:33.074Z,71.53
2022-12-15T11:09:27.280Z,71.39
2022-12-15T11:12:13.320Z,71.01
2022-12-15T11:14:46.424Z,69.64
2022-12-15T11:17:20.582Z,71.36
2022-12-15T11:19:49.104Z,72.10
2022-12-15T11:22:26.318Z,70.68
2022-12-15T11:24:59.875Z,71.30
2022-12-15T11:27:33.003Z,70.18
2022-12-15T11:30:09.785Z,70.71
2022-12-15T11:32:38.896Z,71.00
2022-12-15T11:35:12.307Z,71.11
2022-12-15T11:37:43.308Z,70.01
2022-12-15T11:40:20.399Z,73.49
2022-12-15T11:43:12.914Z,72.20
2022-12-15T11:45:59.344Z,72.59
2022-12-15T11:48:41.894Z,71.28
2022-12-15T11:51:15.447Z,71.24
2022-12-15T11:54:00.588Z,70.18
2022-12-15T11:56:39.030Z,71.19
2022-12-15T11:59:27.717Z,69.28
2022-12-15T12:02:14.169Z,68.34
2022-12-15T12:05:01.410Z,68.90
2022-12-15T12:08:10.032Z,69.34
2022-12-15T12:11:09.338Z,70.09
2022-12-15T12:13:41.970Z,71.12
2022-12-15T12:16:36.024Z,69.94
2022-12-15T12:19:10.176Z,68.37
2022-12-15T12:21:51.050Z,69.33
2022-12-15T12:24:43.031Z,69.15
2022-12-15T12:27:18.092Z,69.20
2022-12-15T12:29:48.713Z,69.22
2022-12-15T12:32:42.579Z,72.25
2022-12-15T12:35:33.499Z,72.27
2022-12-15T12:38:06.892Z,71.50
2022-12-15T12:40:54.650Z,71.24
2022-12-15T12:43:43.990Z,71.82
2022-12-15T12:46:23.705Z,70.09
2022-12-15T12:49:03.620Z,71.85
2022-12-15T12:51:31.911Z,72.13
2022-12-15T12:54:00.030Z,73.10
2022-12-15T12:56:45.449Z,71.49
2022-12-15T12:59:28.416Z,70.00
2022-12-15T13:02:11.201Z,72.04
2022-12-15T13:04:41.270Z,72.99
2022-12-15T13:07:38.659Z,73.96
2022-12-15T13:10:09.412Z,73.69
2022-12-15T13:12:54.541Z,72.96
2022-12-15T13:15:31.124Z,73.45
2022-12-15T13:18:14.568Z,76.41
2022-12-15T13:20:43.668Z,75.46
2022-12-15T13:23:20.053Z,75.80
2022-12-15T13:25:56.623Z,77.91
2022-12-15T13:28:28.028Z,78.20
2022-12-15T13:31:21.165Z,76.65
2022-12-15T13:33:52.314Z,76.29
2022-12-15T13:36:38.379Z,74.20
2022-12-15T13:39:12.020Z,73.21
2022-12-15T13:42:23.745Z,74.69
2022-12-15T13:44:41.441Z,76.03
2022-12-15T13:47:16.622Z,76.53
2022-12-15T13:49:53.240Z,74.53
2022-12-15T13:53:16.200Z,74.62
2022-12-15T13:55:35.348Z,75.30
2022-12-15T13:58:16.116Z,75.89
2022-12-15T14:00:54.831Z,74.94
2022-12-15T14:03:23.177Z,75.62
2022-12-15T14:05:58.996Z,76.34
2022-12-15T14:08:28.882Z,78.11
2022-12-15T14:11:00.028Z,82.18
2022-12-15T14:13:31.401Z,81.71
2022-12-15T14:16:05.249Z,80.96
2022-12-15T14:18:38.974Z,77.06
2022-12-15T14:21:18.898Z,79.03
2022-12-15T14:24:11.432Z,81.02
2022-12-15T14:26:33.882Z,81.23
2022-12-15T14:29:05.114Z,82.69
2022-12-15T14:31:32.642Z,82.34
2022-12-15T14:34:22.929Z,81.41
2022-12-15T14:36:51.483Z,82.22
2022-12-15T14:39:30.829Z,79.89
2022-12-15T14:41:59.169Z,81.56
2022-12-15T14:47:24.402Z,81.70
2022-12-15T14:49:51.883Z,81.67
2022-12-15T14:52:34.085Z,81.07
2022-12-15T14:55:04.296Z,82.04
2022-12-15T14:57:46.518Z,81.99
2022-12-15T15:00:32.859Z,81.24
2022-12-15T15:03:19.063Z,81.31
2022-12-15T15:05:50.294Z,79.25
2022-12-15T15:08:29.775Z,79.90
2022-12-15T15:11:02.632Z,82.36
2022-12-15T15:13:40.182Z,81.47
2022-12-15T15:16:17.935Z,80.13
2022-12-15T15:18:53.295Z,79.60
2022-12-15T15:21:23.015Z,79.73
2022-12-15T15:24:20.303Z,81.94
2022-12-15T15:26:47.747Z,82.04
2022-12-15T15:29:38.585Z,83.50
2022-12-15T15:32:14.770Z,84.01
2022-12-15T15:34:43.072Z,84.04
2022-12-15T15:37:24.196Z,84.54
2022-12-15T15:39:53.730Z,86.00
2022-12-15T15:42:21.177Z,88.75
2022-12-15T15:44:48.624Z,87.26
2022-12-15T15:47:25.104Z,87.70
2022-12-15T15:49:54.806Z,87.66
2022-12-15T15:52:22.616Z,86.91
2022-12-15T15:54:50.273Z,86.93
2022-12-15T15:57:18.637Z,86.18
2022-12-15T15:59:47.078Z,88.27
2022-12-15T16:02:15.083Z,88.33
2022-12-15T16:04:43.928Z,87.14
2022-12-15T16:07:20.557Z,87.41
2022-12-15T16:09:48.430Z,87.98
2022-12-15T16:12:30.786Z,88.72
2022-12-15T16:14:58.406Z,90.15
2022-12-15T16:17:25.784Z,87.39
2022-12-15T16:19:53.137Z,86.25
2022-12-15T16:22:21.690Z,87.90
2022-12-15T16:24:49.104Z,88.01
2022-12-15T16:27:16.602Z,88.17
2022-12-15T16:29:44.549Z,88.69
2022-12-15T16:32:13.240Z,87.86
2022-12-15T16:34:41.994Z,90.11
2022-12-15T16:37:24.167Z,90.43
2022-12-15T16:39:52.428Z,89.99
2022-12-15T16:42:20.439Z,86.91
2022-12-15T16:44:47.839Z,85.25
2022-12-15T16:47:16.102Z,86.16
2022-12-15T16:49:43.775Z,86.16
2022-12-15T16:52:19.318Z,89.40
2022-12-15T16:54:48.535Z,87.54
2022-12-15T16:57:16.309Z,87.54
2022-12-15T16:59:43.854Z,88.17
2022-12-15T17:02:29.644Z,87.06
2022-12-15T17:04:57.837Z,88.10
2022-12-15T17:07:27.813Z,88.55
2022-12-15T17:09:55.899Z,86.84
2022-12-15T17:12:23.278Z,86.55
2022-12-15T17:14:50.934Z,85.12
2022-12-15T17:17:19.500Z,89.16
2022-12-15T17:22:34.594Z,89.27
2022-12-15T17:25:02.358Z,88.36
2022-12-15T17:27:30.582Z,87.40
2022-12-15T17:30:00.087Z,88.56
2022-12-15T17:32:27.581Z,87.58
2022-12-15T17:34:55.065Z,88.69
2022-12-15T17:37:26.155Z,90.98
2022-12-15T17:39:56.839Z,91.47
2022-12-15T17:42:25.133Z,89.18
2022-12-15T17:44:54.136Z,90.66
2022-12-15T17:47:24.392Z,89.28
2022-12-15T17:49:52.482Z,87.38
2022-12-15T17:52:29.687Z,87.46
2022-12-15T17:54:57.931Z,86.92
2022-12-15T17:57:25.826Z,88.45
2022-12-15T17:59:53.553Z,86.78
2022-12-15T18:02:21.791Z,87.95
2022-12-15T18:04:50.024Z,87.37
2022-12-15T18:07:23.452Z,89.15
2022-12-15T18:09:52.067Z,88.02
2022-12-15T18:12:24.907Z,88.25
2022-12-15T18:14:54.279Z,86.48
2022-12-15T18:17:22.782Z,90.22
2022-12-15T18:19:50.489Z,91.08
2022-12-15T18:22:23.950Z,91.63
2022-12-15T18:24:54.046Z,90.35
2022-12-15T18:27:25.612Z,92.21
2022-12-15T18:29:53.703Z,92.42
2022-12-15T18:32:24.173Z,90.89
2022-12-15T18:34:53.237Z,91.20
2022-12-15T18:37:23.060Z,91.85
2022-12-15T18:39:51.219Z,91.54
2022-12-15T18:42:20.754Z,90.13
2022-12-15T18:44:52.086Z,88.48
2022-12-15T18:47:22.823Z,90.57
2022-12-15T18:49:52.137Z,91.50
2022-12-15T18:52:22.679Z,91.69
2022-12-15T18:54:52.075Z,92.37
2022-12-15T18:57:28.794Z,92.32
2022-12-15T18:59:58.955Z,90.01
2022-12-15T19:02:28.269Z,93.27
2022-12-15T19:04:58.339Z,94.19
2022-12-15T19:07:26.681Z,92.54
2022-12-15T19:09:54.740Z,91.11
2022-12-15T19:12:22.417Z,91.46
2022-12-15T19:14:52.735Z,90.36
2022-12-15T19:17:42.920Z,89.78
2022-12-15T19:20:37.549Z,88.17
2022-12-15T19:23:07.214Z,90.08
2022-12-15T19:25:35.672Z,89.78
2022-12-15T19:28:03.497Z,88.71
2022-12-15T19:30:36.972Z,87.67
2022-12-15T19:33:07.226Z,90.65
2022-12-15T19:35:36.761Z,91.72
2022-12-15T19:38:05.146Z,90.53
2022-12-15T19:40:38.230Z,90.90
2022-12-15T19:43:08.654Z,90.87
2022-12-15T19:45:37.196Z,90.35
2022-12-15T19:48:05.887Z,88.66
2022-12-15T19:50:37.659Z,89.92
2022-12-15T19:53:15.001Z,91.42
2022-12-15T19:55:44.328Z,93.88
2022-12-15T19:58:29.278Z,97.34
2022-12-15T20:01:03.908Z,98.58
2022-12-15T20:03:35.407Z,97.21
2022-12-15T20:06:05.124Z,98.83
2022-12-15T20:08:39.234Z,96.53
2022-12-15T20:11:24.971Z,96.62
2022-12-15T20:13:53.926Z,96.83
2022-12-15T20:16:23.018Z,98.39
2022-12-15T20:18:53.167Z,97.02
2022-12-15T20:21:23.456Z,93.92
2022-12-15T20:23:58.495Z,94.14
2022-12-15T20:26:29.938Z,92.66
2022-12-15T20:28:59.269Z,93.40
2022-12-15T20:31:27.859Z,93.02
2022-12-15T20:33:55.637Z,93.33
2022-12-15T20:36:27.864Z,91.93
2022-12-15T20:38:57.062Z,89.79
2022-12-15T20:41:27.634Z,93.70
2022-12-15T20:43:56.082Z,91.83
2022-12-15T20:46:27.090Z,93.24
2022-12-15T20:48:55.728Z,94.45
2022-12-15T20:51:35.184Z,94.83
2022-12-15T20:54:04.340Z,95.11
2022-12-15T20:56:32.238Z,96.37
2022-12-15T20:59:00.887Z,94.98
2022-12-15T21:01:36.876Z,94.75
2022-12-15T21:04:20.855Z,92.53
2022-12-15T21:06:54.435Z,93.69
2022-12-15T21:09:23.163Z,94.65
2022-12-15T21:11:52.430Z,93.51
2022-12-15T21:14:23.499Z,91.35
2022-12-15T21:16:51.407Z,90.96
2022-12-15T21:19:20.767Z,92.00
2022-12-15T21:21:52.203Z,93.46
2022-12-15T21:24:27.504Z,93.94
2022-12-15T21:26:55.509Z,93.80
2022-12-15T21:29:25.804Z,92.48
2022-12-15T21:31:53.169Z,90.17
2022-12-15T21:34:20.572Z,93.58
2022-12-15T21:36:52.614Z,95.48
2022-12-15T21:39:37.298Z,92.42
2022-12-15T21:42:10.582Z,96.08
2022-12-15T21:44:37.907Z,96.06
2022-12-15T21:47:53.230Z,95.60
2022-12-15T21:50:22.327Z,94.40
2022-12-15T21:52:50.013Z,94.87
2022-12-15T21:55:24.245Z,95.18
2022-12-15T21:57:51.975Z,93.40
2022-12-15T22:00:20.442Z,92.38
2022-12-15T22:02:49.293Z,90.70
2022-12-15T22:05:19.173Z,92.91
2022-12-15T22:07:46.763Z,90.62
2022-12-15T22:10:14.944Z,94.61
2022-12-15T22:12:44.096Z,92.83
2022-12-15T22:15:16.464Z,93.24
2022-12-15T22:17:44.336Z,92.76
2022-12-15T22:20:16.711Z,93.90
2022-12-15T22:22:45.113Z,93.72
2022-12-15T22:25:19.869Z,91.97
2022-12-15T22:27:48.029Z,91.84
2022-12-15T22:30:21.718Z,93.12
2022-12-15T22:32:49.313Z,96.67
2022-12-15T22:35:18.608Z,96.37
2022-12-15T22:37:46.109Z,95.56
2022-12-15T22:40:14.472Z,93.36
2022-12-15T22:42:44.586Z,93.19
2022-12-15T22:45:19.812Z,93.35
2022-12-15T22:47:48.651Z,91.00
2022-12-15T22:50:21.719Z,89.35
2022-12-15T22:52:49.738Z,89.75
2022-12-15T22:55:20.506Z,90.05
2022-12-15T22:57:55.358Z,89.32
2022-12-15T23:00:23.054Z,90.91
2022-12-15T23:02:50.855Z,92.50
2022-12-15T23:05:19.985Z,90.78
2022-12-15T23:07:47.667Z,94.28
2022-12-15T23:10:35.611Z,95.25
2022-12-15T23:13:03.407Z,96.65
2022-12-15T23:15:50.535Z,98.18
2022-12-15T23:18:19.411Z,98.42
2022-12-15T23:20:46.763Z,94.67
2022-12-15T23:23:15.383Z,95.27
2022-12-15T23:25:44.075Z,95.31
2022-12-15T23:28:11.418Z,96.15
2022-12-15T23:30:38.867Z,96.22
2022-12-15T23:33:06.498Z,97.31
2022-12-15T23:35:33.956Z,94.10
2022-12-15T23:38:01.336Z,94.45
2022-12-15T23:40:29.118Z,95.74
2022-12-15T23:42:56.493Z,93.71
2022-12-15T23:45:23.868Z,98.25
2022-12-15T23:47:51.481Z,97.52
2022-12-15T23:50:19.156Z,94.08
2022-12-15T23:52:50.288Z,95.57
2022-12-15T23:55:19.659Z,97.10
2022-12-15T23:57:47.039Z,94.63
